sensor_id;sensor_type;location;lat;lon;timestamp;P1;durP1;ratioP1;P2;durP2;ratioP2
51438;SDS011;38816;51.142;-0.974;2023-09-08T00:01:32;597.83;;;555.22;;
51438;SDS011;38816;51.142;-0.974;2023-09-08T00:03:58;588.40;;;546.40;;
51438;SDS011;38816;51.142;-0.974;2023-09-08T00:06:23;596.28;;;553.92;;
51438;SDS011;38816;51.142;-0.974;2023-09-08T00:08:49;612.45;;;568.78;;
51438;SDS011;38816;51.142;-0.974;2023-09-08T00:11:14;609.45;;;566.17;;
51438;SDS011;38816;51.142;-0.974;2023-09-08T00:13:39;600.90;;;558.45;;
51438;SDS011;38816;51.142;-0.974;2023-09-08T00:16:05;590.47;;;548.60;;
51438;SDS011;38816;51.142;-0.974;2023-09-08T00:18:32;592.53;;;550.45;;
51438;SDS011;38816;51.142;-0.974;2023-09-08T00:20:58;595.20;;;552.83;;
51438;SDS011;38816;51.142;-0.974;2023-09-08T00:23:23;580.63;;;539.08;;
51438;SDS011;38816;51.142;-0.974;2023-09-08T00:25:49;592.60;;;550.55;;
51438;SDS011;38816;51.142;-0.974;2023-09-08T00:28:15;601.65;;;558.90;;
51438;SDS011;38816;51.142;-0.974;2023-09-08T00:30:40;588.17;;;546.22;;
51438;SDS011;38816;51.142;-0.974;2023-09-08T00:33:06;587.55;;;545.78;;
51438;SDS011;38816;51.142;-0.974;2023-09-08T00:35:34;576.08;;;534.78;;
51438;SDS011;38816;51.142;-0.974;2023-09-08T00:38:00;575.95;;;535.15;;
51438;SDS011;38816;51.142;-0.974;2023-09-08T00:40:26;588.72;;;547.20;;
51438;SDS011;38816;51.142;-0.974;2023-09-08T00:42:53;588.35;;;546.30;;
51438;SDS011;38816;51.142;-0.974;2023-09-08T00:45:18;573.22;;;532.75;;
51438;SDS011;38816;51.142;-0.974;2023-09-08T00:47:44;568.03;;;527.83;;
51438;SDS011;38816;51.142;-0.974;2023-09-08T00:50:09;557.50;;;518.10;;
51438;SDS011;38816;51.142;-0.974;2023-09-08T00:52:36;564.20;;;524.45;;
51438;SDS011;38816;51.142;-0.974;2023-09-08T00:55:01;567.00;;;526.83;;
51438;SDS011;38816;51.142;-0.974;2023-09-08T00:57:27;560.03;;;520.85;;
51438;SDS011;38816;51.142;-0.974;2023-09-08T00:59:53;561.10;;;521.55;;
51438;SDS011;38816;51.142;-0.974;2023-09-08T01:02:20;543.22;;;504.75;;
51438;SDS011;38816;51.142;-0.974;2023-09-08T01:04:46;546.63;;;508.15;;
51438;SDS011;38816;51.142;-0.974;2023-09-08T01:07:11;542.03;;;503.98;;
51438;SDS011;38816;51.142;-0.974;2023-09-08T01:09:39;537.65;;;499.88;;
51438;SDS011;38816;51.142;-0.974;2023-09-08T01:12:05;543.15;;;505.02;;
51438;SDS011;38816;51.142;-0.974;2023-09-08T01:14:35;542.33;;;504.33;;
51438;SDS011;38816;51.142;-0.974;2023-09-08T01:17:00;544.63;;;506.35;;
51438;SDS011;38816;51.142;-0.974;2023-09-08T01:19:26;548.90;;;510.38;;
51438;SDS011;38816;51.142;-0.974;2023-09-08T01:27:35;546.40;;;507.83;;
51438;SDS011;38816;51.142;-0.974;2023-09-08T01:30:03;551.65;;;512.90;;
51438;SDS011;38816;51.142;-0.974;2023-09-08T01:32:30;538.88;;;501.30;;
51438;SDS011;38816;51.142;-0.974;2023-09-08T01:34:57;542.47;;;504.80;;
51438;SDS011;38816;51.142;-0.974;2023-09-08T01:37:24;535.60;;;498.30;;
51438;SDS011;38816;51.142;-0.974;2023-09-08T01:39:49;542.10;;;503.90;;
51438;SDS011;38816;51.142;-0.974;2023-09-08T01:42:15;545.38;;;507.40;;
51438;SDS011;38816;51.142;-0.974;2023-09-08T01:44:43;540.03;;;502.45;;
51438;SDS011;38816;51.142;-0.974;2023-09-08T01:47:09;554.20;;;515.80;;
51438;SDS011;38816;51.142;-0.974;2023-09-08T01:49:34;532.53;;;495.55;;
51438;SDS011;38816;51.142;-0.974;2023-09-08T01:52:02;534.53;;;497.58;;
51438;SDS011;38816;51.142;-0.974;2023-09-08T01:54:28;534.78;;;497.50;;
51438;SDS011;38816;51.142;-0.974;2023-09-08T01:56:53;527.13;;;490.48;;
51438;SDS011;38816;51.142;-0.974;2023-09-08T01:59:19;534.60;;;497.05;;
51438;SDS011;38816;51.142;-0.974;2023-09-08T02:01:44;526.45;;;489.77;;
51438;SDS011;38816;51.142;-0.974;2023-09-08T02:04:10;529.42;;;492.65;;
51438;SDS011;38816;51.142;-0.974;2023-09-08T02:06:35;528.95;;;492.13;;
51438;SDS011;38816;51.142;-0.974;2023-09-08T02:09:00;528.70;;;491.60;;
51438;SDS011;38816;51.142;-0.974;2023-09-08T02:11:26;530.47;;;493.40;;
51438;SDS011;38816;51.142;-0.974;2023-09-08T02:13:51;531.85;;;494.95;;
51438;SDS011;38816;51.142;-0.974;2023-09-08T02:16:17;511.90;;;476.17;;
51438;SDS011;38816;51.142;-0.974;2023-09-08T02:18:43;532.85;;;495.80;;
51438;SDS011;38816;51.142;-0.974;2023-09-08T02:21:09;519.25;;;483.13;;
51438;SDS011;38816;51.142;-0.974;2023-09-08T02:23:35;529.65;;;492.42;;
51438;SDS011;38816;51.142;-0.974;2023-09-08T02:26:01;534.35;;;497.17;;
51438;SDS011;38816;51.142;-0.974;2023-09-08T02:28:26;545.13;;;506.88;;
51438;SDS011;38816;51.142;-0.974;2023-09-08T02:30:52;532.53;;;495.63;;
51438;SDS011;38816;51.142;-0.974;2023-09-08T02:33:17;522.97;;;486.80;;
51438;SDS011;38816;51.142;-0.974;2023-09-08T02:35:43;519.22;;;482.80;;
51438;SDS011;38816;51.142;-0.974;2023-09-08T02:38:09;519.45;;;483.40;;
51438;SDS011;38816;51.142;-0.974;2023-09-08T02:40:34;521.55;;;485.48;;
51438;SDS011;38816;51.142;-0.974;2023-09-08T02:43:00;522.83;;;486.50;;
51438;SDS011;38816;51.142;-0.974;2023-09-08T02:45:26;519.63;;;483.65;;
51438;SDS011;38816;51.142;-0.974;2023-09-08T02:47:52;522.22;;;486.00;;
51438;SDS011;38816;51.142;-0.974;2023-09-08T02:50:17;514.50;;;478.48;;
51438;SDS011;38816;51.142;-0.974;2023-09-08T02:52:42;529.65;;;493.08;;
51438;SDS011;38816;51.142;-0.974;2023-09-08T02:55:09;518.58;;;482.55;;
51438;SDS011;38816;51.142;-0.974;2023-09-08T02:57:34;524.50;;;487.67;;
51438;SDS011;38816;51.142;-0.974;2023-09-08T02:59:59;514.88;;;478.92;;
51438;SDS011;38816;51.142;-0.974;2023-09-08T03:02:25;510.13;;;474.48;;
51438;SDS011;38816;51.142;-0.974;2023-09-08T03:04:51;523.85;;;487.70;;
51438;SDS011;38816;51.142;-0.974;2023-09-08T03:07:16;518.67;;;482.67;;
51438;SDS011;38816;51.142;-0.974;2023-09-08T03:09:42;516.67;;;480.80;;
51438;SDS011;38816;51.142;-0.974;2023-09-08T03:12:08;518.38;;;482.40;;
51438;SDS011;38816;51.142;-0.974;2023-09-08T03:14:33;498.70;;;464.08;;
51438;SDS011;38816;51.142;-0.974;2023-09-08T03:16:58;507.42;;;472.05;;
51438;SDS011;38816;51.142;-0.974;2023-09-08T03:19:24;516.97;;;481.13;;
51438;SDS011;38816;51.142;-0.974;2023-09-08T03:21:50;508.63;;;473.00;;
51438;SDS011;38816;51.142;-0.974;2023-09-08T03:24:15;532.55;;;495.85;;
51438;SDS011;38816;51.142;-0.974;2023-09-08T03:26:43;499.10;;;464.20;;
51438;SDS011;38816;51.142;-0.974;2023-09-08T03:29:09;512.45;;;476.73;;
51438;SDS011;38816;51.142;-0.974;2023-09-08T03:31:34;524.67;;;487.77;;
51438;SDS011;38816;51.142;-0.974;2023-09-08T03:34:00;513.85;;;478.17;;
51438;SDS011;38816;51.142;-0.974;2023-09-08T03:36:25;520.90;;;484.90;;
51438;SDS011;38816;51.142;-0.974;2023-09-08T03:38:51;507.48;;;472.35;;
51438;SDS011;38816;51.142;-0.974;2023-09-08T03:41:16;512.72;;;477.00;;
51438;SDS011;38816;51.142;-0.974;2023-09-08T03:43:42;517.75;;;481.70;;
51438;SDS011;38816;51.142;-0.974;2023-09-08T03:46:08;520.45;;;484.33;;
51438;SDS011;38816;51.142;-0.974;2023-09-08T03:48:34;511.70;;;476.25;;
51438;SDS011;38816;51.142;-0.974;2023-09-08T03:50:59;506.75;;;471.60;;
51438;SDS011;38816;51.142;-0.974;2023-09-08T03:53:25;512.60;;;477.15;;
51438;SDS011;38816;51.142;-0.974;2023-09-08T03:55:51;497.45;;;462.95;;
51438;SDS011;38816;51.142;-0.974;2023-09-08T03:58:16;508.48;;;473.25;;
51438;SDS011;38816;51.142;-0.974;2023-09-08T04:00:42;497.75;;;463.50;;
51438;SDS011;38816;51.142;-0.974;2023-09-08T04:03:08;493.98;;;459.95;;
51438;SDS011;38816;51.142;-0.974;2023-09-08T04:05:34;504.02;;;469.30;;
51438;SDS011;38816;51.142;-0.974;2023-09-08T04:07:59;502.10;;;467.20;;
51438;SDS011;38816;51.142;-0.974;2023-09-08T04:10:26;495.75;;;461.50;;
51438;SDS011;38816;51.142;-0.974;2023-09-08T04:12:51;492.58;;;458.73;;
51438;SDS011;38816;51.142;-0.974;2023-09-08T04:15:17;497.05;;;462.77;;
51438;SDS011;38816;51.142;-0.974;2023-09-08T04:17:42;486.42;;;452.85;;
51438;SDS011;38816;51.142;-0.974;2023-09-08T04:20:08;498.10;;;463.70;;
51438;SDS011;38816;51.142;-0.974;2023-09-08T04:22:34;494.23;;;460.40;;
51438;SDS011;38816;51.142;-0.974;2023-09-08T04:25:00;498.27;;;464.00;;
51438;SDS011;38816;51.142;-0.974;2023-09-08T04:27:26;493.73;;;459.63;;
51438;SDS011;38816;51.142;-0.974;2023-09-08T04:29:52;505.55;;;470.63;;
51438;SDS011;38816;51.142;-0.974;2023-09-08T04:32:17;496.27;;;461.92;;
51438;SDS011;38816;51.142;-0.974;2023-09-08T04:34:43;511.08;;;475.85;;
51438;SDS011;38816;51.142;-0.974;2023-09-08T04:37:09;493.88;;;459.50;;
51438;SDS011;38816;51.142;-0.974;2023-09-08T04:39:35;498.00;;;463.33;;
51438;SDS011;38816;51.142;-0.974;2023-09-08T04:42:02;484.48;;;451.40;;
51438;SDS011;38816;51.142;-0.974;2023-09-08T04:44:27;494.23;;;459.75;;
51438;SDS011;38816;51.142;-0.974;2023-09-08T04:46:54;492.23;;;458.15;;
51438;SDS011;38816;51.142;-0.974;2023-09-08T04:49:19;502.05;;;467.38;;
51438;SDS011;38816;51.142;-0.974;2023-09-08T04:51:45;506.00;;;471.20;;
51438;SDS011;38816;51.142;-0.974;2023-09-08T04:54:10;494.23;;;460.35;;
51438;SDS011;38816;51.142;-0.974;2023-09-08T04:56:37;489.63;;;455.67;;
51438;SDS011;38816;51.142;-0.974;2023-09-08T04:59:03;493.25;;;459.23;;
51438;SDS011;38816;51.142;-0.974;2023-09-08T05:01:29;501.38;;;466.92;;
51438;SDS011;38816;51.142;-0.974;2023-09-08T05:03:58;505.60;;;470.88;;
51438;SDS011;38816;51.142;-0.974;2023-09-08T05:06:24;502.20;;;467.90;;
51438;SDS011;38816;51.142;-0.974;2023-09-08T05:08:50;501.60;;;467.10;;
51438;SDS011;38816;51.142;-0.974;2023-09-08T05:11:16;481.55;;;448.35;;
51438;SDS011;38816;51.142;-0.974;2023-09-08T05:13:42;480.08;;;447.13;;
51438;SDS011;38816;51.142;-0.974;2023-09-08T05:16:07;483.40;;;450.38;;
51438;SDS011;38816;51.142;-0.974;2023-09-08T05:18:36;483.38;;;450.38;;
51438;SDS011;38816;51.142;-0.974;2023-09-08T05:21:03;467.52;;;435.42;;
51438;SDS011;38816;51.142;-0.974;2023-09-08T05:23:29;475.17;;;442.08;;
51438;SDS011;38816;51.142;-0.974;2023-09-08T05:25:55;477.20;;;444.13;;
51438;SDS011;38816;51.142;-0.974;2023-09-08T05:28:20;476.77;;;444.27;;
51438;SDS011;38816;51.142;-0.974;2023-09-08T05:30:46;476.50;;;443.70;;
51438;SDS011;38816;51.142;-0.974;2023-09-08T05:33:11;471.35;;;439.00;;
51438;SDS011;38816;51.142;-0.974;2023-09-08T05:35:37;500.63;;;466.30;;
51438;SDS011;38816;51.142;-0.974;2023-09-08T05:38:03;480.40;;;447.23;;
51438;SDS011;38816;51.142;-0.974;2023-09-08T05:40:28;482.42;;;448.67;;
51438;SDS011;38816;51.142;-0.974;2023-09-08T05:42:54;485.55;;;451.75;;
51438;SDS011;38816;51.142;-0.974;2023-09-08T05:45:19;496.38;;;462.55;;
51438;SDS011;38816;51.142;-0.974;2023-09-08T05:47:45;494.55;;;460.45;;
51438;SDS011;38816;51.142;-0.974;2023-09-08T05:50:10;485.50;;;452.25;;
51438;SDS011;38816;51.142;-0.974;2023-09-08T05:52:36;477.92;;;445.17;;
51438;SDS011;38816;51.142;-0.974;2023-09-08T05:55:02;477.45;;;444.55;;
51438;SDS011;38816;51.142;-0.974;2023-09-08T05:57:27;466.98;;;435.02;;
51438;SDS011;38816;51.142;-0.974;2023-09-08T05:59:53;488.73;;;455.27;;
51438;SDS011;38816;51.142;-0.974;2023-09-08T06:02:18;476.23;;;443.85;;
51438;SDS011;38816;51.142;-0.974;2023-09-08T06:04:44;480.40;;;447.65;;
51438;SDS011;38816;51.142;-0.974;2023-09-08T06:07:09;463.65;;;431.73;;
51438;SDS011;38816;51.142;-0.974;2023-09-08T06:09:35;475.65;;;442.98;;
51438;SDS011;38816;51.142;-0.974;2023-09-08T06:12:00;441.75;;;411.08;;
51438;SDS011;38816;51.142;-0.974;2023-09-08T06:14:26;463.48;;;431.63;;
51438;SDS011;38816;51.142;-0.974;2023-09-08T06:16:51;472.92;;;440.98;;
51438;SDS011;38816;51.142;-0.974;2023-09-08T06:19:17;464.30;;;432.50;;
51438;SDS011;38816;51.142;-0.974;2023-09-08T06:21:42;459.05;;;427.67;;
51438;SDS011;38816;51.142;-0.974;2023-09-08T06:24:08;479.83;;;446.77;;
51438;SDS011;38816;51.142;-0.974;2023-09-08T06:26:33;469.90;;;437.55;;
51438;SDS011;38816;51.142;-0.974;2023-09-08T06:28:59;474.88;;;442.20;;
51438;SDS011;38816;51.142;-0.974;2023-09-08T06:31:24;473.40;;;441.05;;
51438;SDS011;38816;51.142;-0.974;2023-09-08T06:33:50;474.35;;;441.48;;
51438;SDS011;38816;51.142;-0.974;2023-09-08T06:36:17;449.55;;;418.50;;
51438;SDS011;38816;51.142;-0.974;2023-09-08T06:38:43;461.77;;;430.05;;
51438;SDS011;38816;51.142;-0.974;2023-09-08T06:41:09;456.98;;;425.50;;
51438;SDS011;38816;51.142;-0.974;2023-09-08T06:43:38;473.90;;;440.92;;
51438;SDS011;38816;51.142;-0.974;2023-09-08T06:46:03;475.38;;;440.85;;
51438;SDS011;38816;51.142;-0.974;2023-09-08T06:48:29;470.77;;;438.08;;
51438;SDS011;38816;51.142;-0.974;2023-09-08T06:50:55;449.83;;;419.00;;
51438;SDS011;38816;51.142;-0.974;2023-09-08T06:53:24;476.92;;;443.85;;
51438;SDS011;38816;51.142;-0.974;2023-09-08T06:55:50;462.58;;;430.35;;
51438;SDS011;38816;51.142;-0.974;2023-09-08T06:58:15;470.25;;;437.58;;
51438;SDS011;38816;51.142;-0.974;2023-09-08T07:00:41;468.00;;;435.98;;
51438;SDS011;38816;51.142;-0.974;2023-09-08T07:03:06;482.38;;;448.75;;
51438;SDS011;38816;51.142;-0.974;2023-09-08T07:05:33;476.85;;;443.85;;
51438;SDS011;38816;51.142;-0.974;2023-09-08T07:08:04;481.63;;;448.20;;
51438;SDS011;38816;51.142;-0.974;2023-09-08T07:10:31;477.20;;;443.95;;
51438;SDS011;38816;51.142;-0.974;2023-09-08T07:12:57;489.10;;;455.27;;
51438;SDS011;38816;51.142;-0.974;2023-09-08T07:15:23;490.80;;;456.77;;
51438;SDS011;38816;51.142;-0.974;2023-09-08T07:17:48;496.45;;;461.73;;
51438;SDS011;38816;51.142;-0.974;2023-09-08T07:20:14;495.48;;;460.95;;
51438;SDS011;38816;51.142;-0.974;2023-09-08T07:22:39;488.17;;;454.35;;
51438;SDS011;38816;51.142;-0.974;2023-09-08T07:25:05;488.73;;;455.05;;
51438;SDS011;38816;51.142;-0.974;2023-09-08T07:27:31;483.40;;;449.83;;
51438;SDS011;38816;51.142;-0.974;2023-09-08T07:29:56;483.80;;;449.77;;
51438;SDS011;38816;51.142;-0.974;2023-09-08T07:32:22;490.38;;;455.88;;
51438;SDS011;38816;51.142;-0.974;2023-09-08T07:34:48;500.50;;;464.67;;
51438;SDS011;38816;51.142;-0.974;2023-09-08T07:37:20;499.42;;;464.00;;
51438;SDS011;38816;51.142;-0.974;2023-09-08T07:39:47;489.80;;;455.25;;
51438;SDS011;38816;51.142;-0.974;2023-09-08T07:42:12;515.67;;;478.75;;
51438;SDS011;38816;51.142;-0.974;2023-09-08T07:44:38;507.27;;;471.17;;
51438;SDS011;38816;51.142;-0.974;2023-09-08T07:47:03;493.52;;;458.65;;
51438;SDS011;38816;51.142;-0.974;2023-09-08T07:49:29;499.58;;;464.50;;
51438;SDS011;38816;51.142;-0.974;2023-09-08T07:51:54;484.98;;;450.80;;
51438;SDS011;38816;51.142;-0.974;2023-09-08T07:54:20;496.73;;;461.77;;
51438;SDS011;38816;51.142;-0.974;2023-09-08T07:56:46;506.20;;;470.70;;
51438;SDS011;38816;51.142;-0.974;2023-09-08T07:59:12;510.92;;;475.38;;
51438;SDS011;38816;51.142;-0.974;2023-09-08T08:01:38;501.80;;;466.77;;
51438;SDS011;38816;51.142;-0.974;2023-09-08T08:04:04;507.85;;;472.25;;
51438;SDS011;38816;51.142;-0.974;2023-09-08T08:06:29;509.15;;;473.58;;
51438;SDS011;38816;51.142;-0.974;2023-09-08T08:08:55;502.80;;;467.20;;
51438;SDS011;38816;51.142;-0.974;2023-09-08T08:11:22;530.47;;;493.70;;
51438;SDS011;38816;51.142;-0.974;2023-09-08T08:13:48;521.67;;;485.23;;
51438;SDS011;38816;51.142;-0.974;2023-09-08T08:16:13;523.45;;;486.95;;
51438;SDS011;38816;51.142;-0.974;2023-09-08T08:18:39;541.63;;;503.52;;
51438;SDS011;38816;51.142;-0.974;2023-09-08T08:21:04;565.33;;;524.80;;
51438;SDS011;38816;51.142;-0.974;2023-09-08T08:23:30;552.30;;;513.05;;
51438;SDS011;38816;51.142;-0.974;2023-09-08T08:25:57;580.35;;;538.80;;
51438;SDS011;38816;51.142;-0.974;2023-09-08T08:28:25;558.33;;;519.08;;
51438;SDS011;38816;51.142;-0.974;2023-09-08T08:30:51;575.55;;;534.33;;
51438;SDS011;38816;51.142;-0.974;2023-09-08T08:33:16;576.22;;;535.72;;
51438;SDS011;38816;51.142;-0.974;2023-09-08T08:35:48;583.67;;;542.03;;
51438;SDS011;38816;51.142;-0.974;2023-09-08T08:38:15;598.53;;;556.33;;
51438;SDS011;38816;51.142;-0.974;2023-09-08T08:40:40;574.75;;;533.80;;
51438;SDS011;38816;51.142;-0.974;2023-09-08T08:43:06;586.75;;;544.90;;
51438;SDS011;38816;51.142;-0.974;2023-09-08T08:45:31;592.00;;;550.05;;
51438;SDS011;38816;51.142;-0.974;2023-09-08T08:47:58;584.88;;;543.28;;
51438;SDS011;38816;51.142;-0.974;2023-09-08T08:50:24;593.92;;;552.03;;
51438;SDS011;38816;51.142;-0.974;2023-09-08T08:52:49;572.70;;;531.88;;
51438;SDS011;38816;51.142;-0.974;2023-09-08T08:55:15;576.28;;;535.28;;
51438;SDS011;38816;51.142;-0.974;2023-09-08T08:57:41;576.90;;;536.05;;
51438;SDS011;38816;51.142;-0.974;2023-09-08T09:00:07;575.28;;;534.20;;
51438;SDS011;38816;51.142;-0.974;2023-09-08T09:02:38;591.10;;;549.10;;
51438;SDS011;38816;51.142;-0.974;2023-09-08T09:05:06;563.17;;;523.40;;
51438;SDS011;38816;51.142;-0.974;2023-09-08T09:07:33;555.35;;;516.33;;
51438;SDS011;38816;51.142;-0.974;2023-09-08T09:10:00;538.25;;;500.10;;
51438;SDS011;38816;51.142;-0.974;2023-09-08T09:12:25;546.83;;;508.17;;
51438;SDS011;38816;51.142;-0.974;2023-09-08T09:14:54;570.35;;;529.67;;
51438;SDS011;38816;51.142;-0.974;2023-09-08T09:17:20;574.40;;;533.97;;
51438;SDS011;38816;51.142;-0.974;2023-09-08T09:19:46;597.40;;;555.20;;
51438;SDS011;38816;51.142;-0.974;2023-09-08T09:22:11;559.95;;;520.42;;
51438;SDS011;38816;51.142;-0.974;2023-09-08T09:24:38;591.03;;;549.22;;
51438;SDS011;38816;51.142;-0.974;2023-09-08T09:27:10;601.88;;;559.33;;
51438;SDS011;38816;51.142;-0.974;2023-09-08T09:29:49;541.58;;;503.60;;
51438;SDS011;38816;51.142;-0.974;2023-09-08T09:32:15;474.98;;;442.80;;
51438;SDS011;38816;51.142;-0.974;2023-09-08T09:34:48;457.17;;;426.30;;
51438;SDS011;38816;51.142;-0.974;2023-09-08T09:37:15;433.33;;;403.98;;
51438;SDS011;38816;51.142;-0.974;2023-09-08T09:39:41;397.52;;;370.90;;
51438;SDS011;38816;51.142;-0.974;2023-09-08T09:42:10;426.45;;;397.35;;
51438;SDS011;38816;51.142;-0.974;2023-09-08T09:44:35;429.23;;;400.27;;
51438;SDS011;38816;51.142;-0.974;2023-09-08T09:47:01;421.05;;;392.80;;
51438;SDS011;38816;51.142;-0.974;2023-09-08T09:49:26;315.17;;;294.45;;
51438;SDS011;38816;51.142;-0.974;2023-09-08T09:51:57;386.45;;;360.58;;
51438;SDS011;38816;51.142;-0.974;2023-09-08T09:54:23;299.15;;;279.67;;
51438;SDS011;38816;51.142;-0.974;2023-09-08T09:56:48;287.48;;;268.55;;
51438;SDS011;38816;51.142;-0.974;2023-09-08T09:59:17;297.55;;;278.17;;
51438;SDS011;38816;51.142;-0.974;2023-09-08T10:01:43;196.15;;;183.35;;
51438;SDS011;38816;51.142;-0.974;2023-09-08T10:04:09;319.35;;;298.17;;
51438;SDS011;38816;51.142;-0.974;2023-09-08T10:06:36;243.95;;;228.27;;
51438;SDS011;38816;51.142;-0.974;2023-09-08T10:09:03;251.70;;;235.45;;
51438;SDS011;38816;51.142;-0.974;2023-09-08T10:11:47;272.45;;;254.77;;
51438;SDS011;38816;51.142;-0.974;2023-09-08T10:14:17;286.17;;;267.30;;
51438;SDS011;38816;51.142;-0.974;2023-09-08T10:16:44;237.00;;;221.60;;
51438;SDS011;38816;51.142;-0.974;2023-09-08T10:19:14;194.13;;;181.15;;
51438;SDS011;38816;51.142;-0.974;2023-09-08T10:21:41;166.10;;;155.13;;
51438;SDS011;38816;51.142;-0.974;2023-09-08T10:26:51;306.15;;;285.88;;
51438;SDS011;38816;51.142;-0.974;2023-09-08T10:29:23;277.83;;;259.75;;
51438;SDS011;38816;51.142;-0.974;2023-09-08T10:31:49;177.65;;;165.63;;
51438;SDS011;38816;51.142;-0.974;2023-09-08T10:34:15;137.40;;;128.32;;
51438;SDS011;38816;51.142;-0.974;2023-09-08T10:36:43;112.32;;;104.82;;
51438;SDS011;38816;51.142;-0.974;2023-09-08T10:39:27;117.13;;;109.40;;
51438;SDS011;38816;51.142;-0.974;2023-09-08T10:47:13;150.52;;;140.18;;
51438;SDS011;38816;51.142;-0.974;2023-09-08T10:49:39;150.07;;;140.05;;
51438;SDS011;38816;51.142;-0.974;2023-09-08T10:52:08;129.18;;;120.55;;
51438;SDS011;38816;51.142;-0.974;2023-09-08T10:57:14;121.30;;;113.07;;
51438;SDS011;38816;51.142;-0.974;2023-09-08T11:05:06;154.60;;;144.50;;
51438;SDS011;38816;51.142;-0.974;2023-09-08T11:07:36;155.07;;;144.85;;
51438;SDS011;38816;51.142;-0.974;2023-09-08T11:10:03;118.30;;;110.47;;
51438;SDS011;38816;51.142;-0.974;2023-09-08T11:12:32;151.32;;;141.40;;
51438;SDS011;38816;51.142;-0.974;2023-09-08T11:14:58;155.13;;;144.82;;
51438;SDS011;38816;51.142;-0.974;2023-09-08T11:17:30;135.80;;;126.85;;
51438;SDS011;38816;51.142;-0.974;2023-09-08T11:19:57;114.03;;;106.43;;
51438;SDS011;38816;51.142;-0.974;2023-09-08T11:22:23;66.95;;;62.20;;
51438;SDS011;38816;51.142;-0.974;2023-09-08T11:24:50;107.93;;;100.68;;
51438;SDS011;38816;51.142;-0.974;2023-09-08T11:27:16;71.95;;;67.03;;
51438;SDS011;38816;51.142;-0.974;2023-09-08T11:29:42;103.15;;;96.25;;
51438;SDS011;38816;51.142;-0.974;2023-09-08T11:32:09;44.90;;;41.75;;
51438;SDS011;38816;51.142;-0.974;2023-09-08T11:34:35;64.75;;;60.20;;
51438;SDS011;38816;51.142;-0.974;2023-09-08T11:37:05;74.90;;;69.85;;
51438;SDS011;38816;51.142;-0.974;2023-09-08T11:42:01;53.80;;;50.05;;
51438;SDS011;38816;51.142;-0.974;2023-09-08T11:44:26;72.50;;;67.40;;
51438;SDS011;38816;51.142;-0.974;2023-09-08T11:46:52;81.88;;;76.40;;
51438;SDS011;38816;51.142;-0.974;2023-09-08T11:49:20;76.72;;;71.40;;
51438;SDS011;38816;51.142;-0.974;2023-09-08T11:51:47;84.40;;;78.88;;
51438;SDS011;38816;51.142;-0.974;2023-09-08T11:54:14;115.25;;;107.63;;
51438;SDS011;38816;51.142;-0.974;2023-09-08T11:56:39;74.10;;;69.22;;
51438;SDS011;38816;51.142;-0.974;2023-09-08T11:59:05;74.53;;;69.55;;
51438;SDS011;38816;51.142;-0.974;2023-09-08T12:01:32;55.65;;;51.92;;
51438;SDS011;38816;51.142;-0.974;2023-09-08T12:03:57;51.50;;;48.03;;
51438;SDS011;38816;51.142;-0.974;2023-09-08T12:06:26;43.65;;;40.63;;
51438;SDS011;38816;51.142;-0.974;2023-09-08T12:08:56;56.53;;;52.42;;
51438;SDS011;38816;51.142;-0.974;2023-09-08T12:11:31;43.00;;;40.03;;
51438;SDS011;38816;51.142;-0.974;2023-09-08T12:14:01;37.13;;;34.47;;
51438;SDS011;38816;51.142;-0.974;2023-09-08T12:16:27;51.15;;;47.72;;
51438;SDS011;38816;51.142;-0.974;2023-09-08T12:18:52;46.92;;;43.78;;
51438;SDS011;38816;51.142;-0.974;2023-09-08T12:21:17;39.10;;;36.30;;
51438;SDS011;38816;51.142;-0.974;2023-09-08T12:23:46;42.45;;;39.30;;
51438;SDS011;38816;51.142;-0.974;2023-09-08T12:26:14;50.45;;;46.90;;
51438;SDS011;38816;51.142;-0.974;2023-09-08T12:28:41;49.13;;;45.53;;
51438;SDS011;38816;51.142;-0.974;2023-09-08T12:31:07;42.50;;;39.55;;
51438;SDS011;38816;51.142;-0.974;2023-09-08T12:33:33;40.97;;;37.88;;
51438;SDS011;38816;51.142;-0.974;2023-09-08T12:35:59;38.75;;;36.05;;
51438;SDS011;38816;51.142;-0.974;2023-09-08T12:38:30;38.60;;;35.88;;
51438;SDS011;38816;51.142;-0.974;2023-09-08T12:40:57;41.20;;;38.17;;
51438;SDS011;38816;51.142;-0.974;2023-09-08T12:43:22;54.15;;;50.47;;
51438;SDS011;38816;51.142;-0.974;2023-09-08T12:45:48;45.38;;;42.25;;
51438;SDS011;38816;51.142;-0.974;2023-09-08T12:48:13;50.45;;;46.75;;
51438;SDS011;38816;51.142;-0.974;2023-09-08T12:50:38;57.97;;;53.38;;
51438;SDS011;38816;51.142;-0.974;2023-09-08T12:53:04;57.58;;;53.55;;
51438;SDS011;38816;51.142;-0.974;2023-09-08T12:55:30;49.95;;;46.50;;
51438;SDS011;38816;51.142;-0.974;2023-09-08T12:57:55;58.88;;;54.90;;
51438;SDS011;38816;51.142;-0.974;2023-09-08T13:00:22;53.92;;;50.25;;
51438;SDS011;38816;51.142;-0.974;2023-09-08T13:02:48;48.75;;;45.33;;
51438;SDS011;38816;51.142;-0.974;2023-09-08T13:05:14;55.75;;;51.67;;
51438;SDS011;38816;51.142;-0.974;2023-09-08T13:07:40;70.20;;;65.55;;
51438;SDS011;38816;51.142;-0.974;2023-09-08T13:10:06;56.45;;;52.60;;
51438;SDS011;38816;51.142;-0.974;2023-09-08T13:12:32;46.00;;;42.83;;
51438;SDS011;38816;51.142;-0.974;2023-09-08T13:14:58;54.90;;;50.92;;
51438;SDS011;38816;51.142;-0.974;2023-09-08T13:17:24;47.83;;;44.53;;
51438;SDS011;38816;51.142;-0.974;2023-09-08T13:19:49;40.90;;;37.92;;
51438;SDS011;38816;51.142;-0.974;2023-09-08T13:22:15;53.97;;;50.17;;
51438;SDS011;38816;51.142;-0.974;2023-09-08T13:24:40;55.95;;;51.90;;
51438;SDS011;38816;51.142;-0.974;2023-09-08T13:27:06;50.30;;;46.80;;
51438;SDS011;38816;51.142;-0.974;2023-09-08T13:29:31;50.97;;;47.50;;
51438;SDS011;38816;51.142;-0.974;2023-09-08T13:31:57;48.65;;;45.22;;
51438;SDS011;38816;51.142;-0.974;2023-09-08T13:34:23;53.22;;;49.42;;
51438;SDS011;38816;51.142;-0.974;2023-09-08T13:36:49;53.33;;;49.40;;
51438;SDS011;38816;51.142;-0.974;2023-09-08T13:39:14;71.35;;;66.35;;
51438;SDS011;38816;51.142;-0.974;2023-09-08T13:44:22;73.03;;;67.90;;
51438;SDS011;38816;51.142;-0.974;2023-09-08T13:46:49;72.15;;;67.38;;
51438;SDS011;38816;51.142;-0.974;2023-09-08T13:49:15;83.28;;;77.82;;
51438;SDS011;38816;51.142;-0.974;2023-09-08T13:51:40;75.55;;;70.25;;
51438;SDS011;38816;51.142;-0.974;2023-09-08T13:54:06;94.70;;;88.32;;
51438;SDS011;38816;51.142;-0.974;2023-09-08T13:56:33;107.35;;;100.20;;
51438;SDS011;38816;51.142;-0.974;2023-09-08T13:58:59;95.45;;;89.25;;
51438;SDS011;38816;51.142;-0.974;2023-09-08T14:01:25;92.53;;;85.95;;
51438;SDS011;38816;51.142;-0.974;2023-09-08T14:03:53;79.25;;;74.03;;
51438;SDS011;38816;51.142;-0.974;2023-09-08T14:06:18;57.92;;;53.83;;
51438;SDS011;38816;51.142;-0.974;2023-09-08T14:08:44;62.55;;;58.25;;
51438;SDS011;38816;51.142;-0.974;2023-09-08T14:11:10;63.00;;;58.38;;